sensor_id;sensor_type;location;lat;lon;timestamp;P1;durP1;ratioP1;P2;durP2;ratioP2
19903;SDS011;10114;50.970;4.962;2022-11-24T00:00:23;20.50;;;2.70;;
19903;SDS011;10114;50.970;4.962;2022-11-24T00:02:49;15.27;;;2.90;;
19903;SDS011;10114;50.970;4.962;2022-11-24T00:05:15;18.85;;;3.22;;
19903;SDS011;10114;50.970;4.962;2022-11-24T00:07:41;12.57;;;2.67;;
19903;SDS011;10114;50.970;4.962;2022-11-24T00:10:07;14.27;;;2.88;;
19903;SDS011;10114;50.970;4.962;2022-11-24T00:12:33;10.70;;;2.67;;
19903;SDS011;10114;50.970;4.962;2022-11-24T00:15:00;16.10;;;2.78;;
19903;SDS011;10114;50.970;4.962;2022-11-24T00:17:26;20.10;;;3.88;;
19903;SDS011;10114;50.970;4.962;2022-11-24T00:19:53;10.32;;;2.33;;
19903;SDS011;10114;50.970;4.962;2022-11-24T00:22:19;15.50;;;2.72;;
19903;SDS011;10114;50.970;4.962;2022-11-24T00:24:45;14.15;;;3.15;;
19903;SDS011;10114;50.970;4.962;2022-11-24T00:27:11;15.65;;;2.30;;
19903;SDS011;10114;50.970;4.962;2022-11-24T00:29:37;13.73;;;2.72;;
19903;SDS011;10114;50.970;4.962;2022-11-24T00:32:03;14.05;;;2.40;;
19903;SDS011;10114;50.970;4.962;2022-11-24T00:34:30;23.85;;;3.72;;
19903;SDS011;10114;50.970;4.962;2022-11-24T00:36:56;22.67;;;3.63;;
19903;SDS011;10114;50.970;4.962;2022-11-24T00:39:22;17.55;;;2.05;;
19903;SDS011;10114;50.970;4.962;2022-11-24T00:41:48;19.45;;;2.90;;
19903;SDS011;10114;50.970;4.962;2022-11-24T00:44:14;22.23;;;2.92;;
19903;SDS011;10114;50.970;4.962;2022-11-24T00:46:40;17.20;;;2.58;;
19903;SDS011;10114;50.970;4.962;2022-11-24T00:49:06;19.85;;;2.85;;
19903;SDS011;10114;50.970;4.962;2022-11-24T00:51:32;16.65;;;3.13;;
19903;SDS011;10114;50.970;4.962;2022-11-24T00:53:59;14.95;;;2.47;;
19903;SDS011;10114;50.970;4.962;2022-11-24T00:56:26;13.85;;;2.90;;
19903;SDS011;10114;50.970;4.962;2022-11-24T00:58:52;24.42;;;3.63;;
19903;SDS011;10114;50.970;4.962;2022-11-24T01:01:19;13.70;;;2.90;;
19903;SDS011;10114;50.970;4.962;2022-11-24T01:03:46;26.95;;;3.33;;
19903;SDS011;10114;50.970;4.962;2022-11-24T01:06:13;22.20;;;3.20;;
19903;SDS011;10114;50.970;4.962;2022-11-24T01:08:39;24.15;;;3.22;;
19903;SDS011;10114;50.970;4.962;2022-11-24T01:13:35;22.83;;;3.95;;
19903;SDS011;10114;50.970;4.962;2022-11-24T01:16:01;20.20;;;3.85;;
19903;SDS011;10114;50.970;4.962;2022-11-24T01:18:28;19.23;;;2.70;;
19903;SDS011;10114;50.970;4.962;2022-11-24T01:20:54;23.63;;;3.08;;
19903;SDS011;10114;50.970;4.962;2022-11-24T01:23:20;17.20;;;3.80;;
19903;SDS011;10114;50.970;4.962;2022-11-24T01:25:46;23.02;;;3.13;;
19903;SDS011;10114;50.970;4.962;2022-11-24T01:28:12;14.48;;;3.17;;
19903;SDS011;10114;50.970;4.962;2022-11-24T01:30:38;13.15;;;2.47;;
19903;SDS011;10114;50.970;4.962;2022-11-24T01:33:04;17.73;;;3.47;;
19903;SDS011;10114;50.970;4.962;2022-11-24T01:35:30;13.55;;;2.95;;
19903;SDS011;10114;50.970;4.962;2022-11-24T01:37:56;16.13;;;3.10;;
19903;SDS011;10114;50.970;4.962;2022-11-24T01:40:22;21.40;;;3.75;;
19903;SDS011;10114;50.970;4.962;2022-11-24T01:42:49;20.27;;;3.40;;
19903;SDS011;10114;50.970;4.962;2022-11-24T01:45:32;23.17;;;3.22;;
19903;SDS011;10114;50.970;4.962;2022-11-24T01:48:00;13.82;;;2.80;;
19903;SDS011;10114;50.970;4.962;2022-11-24T01:50:27;15.57;;;3.05;;
19903;SDS011;10114;50.970;4.962;2022-11-24T01:52:53;16.80;;;2.72;;
19903;SDS011;10114;50.970;4.962;2022-11-24T01:55:20;21.55;;;3.15;;
19903;SDS011;10114;50.970;4.962;2022-11-24T01:57:49;32.67;;;3.67;;
19903;SDS011;10114;50.970;4.962;2022-11-24T02:00:16;18.27;;;3.05;;
19903;SDS011;10114;50.970;4.962;2022-11-24T02:02:43;22.85;;;3.13;;
19903;SDS011;10114;50.970;4.962;2022-11-24T02:05:15;18.42;;;3.15;;
19903;SDS011;10114;50.970;4.962;2022-11-24T02:07:43;23.40;;;3.33;;
19903;SDS011;10114;50.970;4.962;2022-11-24T02:10:11;19.10;;;3.35;;
19903;SDS011;10114;50.970;4.962;2022-11-24T02:12:38;22.20;;;3.47;;
19903;SDS011;10114;50.970;4.962;2022-11-24T02:15:04;22.08;;;3.83;;
19903;SDS011;10114;50.970;4.962;2022-11-24T02:17:31;22.17;;;3.25;;
19903;SDS011;10114;50.970;4.962;2022-11-24T02:19:58;20.65;;;3.22;;
19903;SDS011;10114;50.970;4.962;2022-11-24T02:25:15;20.13;;;2.72;;
19903;SDS011;10114;50.970;4.962;2022-11-24T02:27:43;23.85;;;3.45;;
19903;SDS011;10114;50.970;4.962;2022-11-24T02:30:09;23.85;;;2.75;;
19903;SDS011;10114;50.970;4.962;2022-11-24T02:32:35;26.30;;;3.35;;
19903;SDS011;10114;50.970;4.962;2022-11-24T02:35:04;23.35;;;3.88;;
19903;SDS011;10114;50.970;4.962;2022-11-24T02:37:30;24.30;;;3.42;;
19903;SDS011;10114;50.970;4.962;2022-11-24T02:39:56;24.95;;;3.90;;
19903;SDS011;10114;50.970;4.962;2022-11-24T02:42:22;19.42;;;2.67;;
19903;SDS011;10114;50.970;4.962;2022-11-24T02:44:49;29.27;;;3.90;;
19903;SDS011;10114;50.970;4.962;2022-11-24T02:47:18;22.67;;;4.28;;
19903;SDS011;10114;50.970;4.962;2022-11-24T02:49:44;26.15;;;3.50;;
19903;SDS011;10114;50.970;4.962;2022-11-24T02:52:10;17.50;;;2.72;;
19903;SDS011;10114;50.970;4.962;2022-11-24T02:54:36;26.85;;;3.13;;
19903;SDS011;10114;50.970;4.962;2022-11-24T02:57:02;23.15;;;3.50;;
19903;SDS011;10114;50.970;4.962;2022-11-24T02:59:28;27.58;;;3.35;;
19903;SDS011;10114;50.970;4.962;2022-11-24T03:01:55;22.30;;;4.15;;
19903;SDS011;10114;50.970;4.962;2022-11-24T03:04:21;23.92;;;3.05;;
19903;SDS011;10114;50.970;4.962;2022-11-24T03:06:47;14.93;;;2.72;;
19903;SDS011;10114;50.970;4.962;2022-11-24T03:09:13;33.50;;;3.38;;
19903;SDS011;10114;50.970;4.962;2022-11-24T03:11:39;23.67;;;4.38;;
19903;SDS011;10114;50.970;4.962;2022-11-24T03:14:05;14.77;;;2.83;;
19903;SDS011;10114;50.970;4.962;2022-11-24T03:16:31;28.40;;;2.97;;
19903;SDS011;10114;50.970;4.962;2022-11-24T03:18:57;20.77;;;3.55;;
19903;SDS011;10114;50.970;4.962;2022-11-24T03:21:24;15.35;;;3.03;;
19903;SDS011;10114;50.970;4.962;2022-11-24T03:23:50;20.23;;;3.33;;
19903;SDS011;10114;50.970;4.962;2022-11-24T03:26:17;19.23;;;2.85;;
19903;SDS011;10114;50.970;4.962;2022-11-24T03:28:43;21.73;;;3.85;;
19903;SDS011;10114;50.970;4.962;2022-11-24T03:31:10;28.98;;;3.90;;
19903;SDS011;10114;50.970;4.962;2022-11-24T03:33:36;22.17;;;3.70;;
19903;SDS011;10114;50.970;4.962;2022-11-24T03:36:03;16.42;;;2.55;;
19903;SDS011;10114;50.970;4.962;2022-11-24T03:38:29;25.90;;;3.30;;
19903;SDS011;10114;50.970;4.962;2022-11-24T03:40:55;22.27;;;3.13;;
19903;SDS011;10114;50.970;4.962;2022-11-24T03:43:21;18.52;;;2.78;;
19903;SDS011;10114;50.970;4.962;2022-11-24T03:45:48;22.85;;;3.90;;
19903;SDS011;10114;50.970;4.962;2022-11-24T03:48:14;21.25;;;3.47;;
19903;SDS011;10114;50.970;4.962;2022-11-24T03:50:41;21.42;;;3.38;;
19903;SDS011;10114;50.970;4.962;2022-11-24T03:53:07;14.00;;;2.58;;
19903;SDS011;10114;50.970;4.962;2022-11-24T03:55:33;22.58;;;3.33;;
19903;SDS011;10114;50.970;4.962;2022-11-24T03:58:00;21.13;;;3.13;;
19903;SDS011;10114;50.970;4.962;2022-11-24T04:00:26;26.00;;;2.60;;
19903;SDS011;10114;50.970;4.962;2022-11-24T04:02:52;15.68;;;2.40;;
19903;SDS011;10114;50.970;4.962;2022-11-24T04:05:18;18.60;;;2.22;;
19903;SDS011;10114;50.970;4.962;2022-11-24T04:07:44;18.80;;;3.03;;
19903;SDS011;10114;50.970;4.962;2022-11-24T04:10:10;28.52;;;4.13;;
19903;SDS011;10114;50.970;4.962;2022-11-24T04:12:36;21.92;;;3.40;;
19903;SDS011;10114;50.970;4.962;2022-11-24T04:15:08;22.25;;;2.85;;
19903;SDS011;10114;50.970;4.962;2022-11-24T04:17:34;22.83;;;3.58;;
19903;SDS011;10114;50.970;4.962;2022-11-24T04:20:00;28.92;;;3.25;;
19903;SDS011;10114;50.970;4.962;2022-11-24T04:22:26;18.83;;;3.13;;
19903;SDS011;10114;50.970;4.962;2022-11-24T04:24:52;13.43;;;2.20;;
19903;SDS011;10114;50.970;4.962;2022-11-24T04:27:18;14.65;;;2.13;;
19903;SDS011;10114;50.970;4.962;2022-11-24T04:29:44;13.27;;;2.33;;
19903;SDS011;10114;50.970;4.962;2022-11-24T04:32:10;14.25;;;2.15;;
19903;SDS011;10114;50.970;4.962;2022-11-24T04:34:36;14.25;;;2.22;;
19903;SDS011;10114;50.970;4.962;2022-11-24T04:37:02;9.48;;;1.67;;
19903;SDS011;10114;50.970;4.962;2022-11-24T04:39:28;11.00;;;1.85;;
19903;SDS011;10114;50.970;4.962;2022-11-24T04:41:54;8.13;;;1.67;;
19903;SDS011;10114;50.970;4.962;2022-11-24T04:44:20;8.60;;;1.50;;
19903;SDS011;10114;50.970;4.962;2022-11-24T04:46:47;7.05;;;1.67;;
19903;SDS011;10114;50.970;4.962;2022-11-24T04:49:13;12.63;;;1.90;;
19903;SDS011;10114;50.970;4.962;2022-11-24T04:51:39;13.27;;;1.95;;
19903;SDS011;10114;50.970;4.962;2022-11-24T04:54:06;9.57;;;1.27;;
19903;SDS011;10114;50.970;4.962;2022-11-24T04:56:32;8.57;;;1.33;;
19903;SDS011;10114;50.970;4.962;2022-11-24T04:58:58;7.28;;;1.30;;
19903;SDS011;10114;50.970;4.962;2022-11-24T05:01:25;14.80;;;2.13;;
19903;SDS011;10114;50.970;4.962;2022-11-24T05:03:54;10.90;;;1.45;;
19903;SDS011;10114;50.970;4.962;2022-11-24T05:06:21;8.70;;;0.82;;
19903;SDS011;10114;50.970;4.962;2022-11-24T05:08:50;6.38;;;1.20;;
19903;SDS011;10114;50.970;4.962;2022-11-24T05:11:17;7.32;;;1.30;;
19903;SDS011;10114;50.970;4.962;2022-11-24T05:13:44;9.13;;;1.38;;
19903;SDS011;10114;50.970;4.962;2022-11-24T05:16:10;7.47;;;1.38;;
19903;SDS011;10114;50.970;4.962;2022-11-24T05:18:36;8.93;;;1.08;;
19903;SDS011;10114;50.970;4.962;2022-11-24T05:21:03;7.00;;;1.20;;
19903;SDS011;10114;50.970;4.962;2022-11-24T05:23:29;4.07;;;0.80;;
19903;SDS011;10114;50.970;4.962;2022-11-24T05:25:59;6.15;;;1.00;;
19903;SDS011;10114;50.970;4.962;2022-11-24T05:28:25;8.10;;;1.48;;
19903;SDS011;10114;50.970;4.962;2022-11-24T05:30:51;5.45;;;1.10;;
19903;SDS011;10114;50.970;4.962;2022-11-24T05:33:17;4.60;;;0.68;;
19903;SDS011;10114;50.970;4.962;2022-11-24T05:35:47;6.78;;;0.98;;
19903;SDS011;10114;50.970;4.962;2022-11-24T05:38:14;3.72;;;0.70;;
19903;SDS011;10114;50.970;4.962;2022-11-24T05:40:40;4.95;;;0.75;;
19903;SDS011;10114;50.970;4.962;2022-11-24T05:43:13;4.07;;;0.82;;
19903;SDS011;10114;50.970;4.962;2022-11-24T05:45:40;3.08;;;0.65;;
19903;SDS011;10114;50.970;4.962;2022-11-24T05:48:07;4.63;;;0.70;;
19903;SDS011;10114;50.970;4.962;2022-11-24T05:50:33;6.55;;;0.82;;
19903;SDS011;10114;50.970;4.962;2022-11-24T05:53:03;4.53;;;0.70;;
19903;SDS011;10114;50.970;4.962;2022-11-24T05:55:29;4.82;;;0.90;;
19903;SDS011;10114;50.970;4.962;2022-11-24T05:58:14;2.70;;;0.70;;
19903;SDS011;10114;50.970;4.962;2022-11-24T06:00:40;2.88;;;0.73;;
19903;SDS011;10114;50.970;4.962;2022-11-24T06:03:06;2.47;;;0.70;;
19903;SDS011;10114;50.970;4.962;2022-11-24T06:05:32;4.15;;;0.88;;
19903;SDS011;10114;50.970;4.962;2022-11-24T06:07:58;6.13;;;0.80;;
19903;SDS011;10114;50.970;4.962;2022-11-24T06:10:25;5.93;;;0.93;;
19903;SDS011;10114;50.970;4.962;2022-11-24T06:12:51;2.95;;;0.65;;
19903;SDS011;10114;50.970;4.962;2022-11-24T06:15:17;4.68;;;1.00;;
19903;SDS011;10114;50.970;4.962;2022-11-24T06:17:43;7.78;;;1.25;;
19903;SDS011;10114;50.970;4.962;2022-11-24T06:20:10;8.07;;;1.13;;
19903;SDS011;10114;50.970;4.962;2022-11-24T06:22:36;12.63;;;1.30;;
19903;SDS011;10114;50.970;4.962;2022-11-24T06:25:02;13.35;;;1.50;;
19903;SDS011;10114;50.970;4.962;2022-11-24T06:27:28;7.28;;;1.20;;
19903;SDS011;10114;50.970;4.962;2022-11-24T06:29:54;9.40;;;1.60;;
19903;SDS011;10114;50.970;4.962;2022-11-24T06:32:20;8.85;;;1.65;;
19903;SDS011;10114;50.970;4.962;2022-11-24T06:34:48;9.05;;;1.27;;
19903;SDS011;10114;50.970;4.962;2022-11-24T06:37:14;7.43;;;1.38;;
19903;SDS011;10114;50.970;4.962;2022-11-24T06:39:40;8.93;;;1.23;;
19903;SDS011;10114;50.970;4.962;2022-11-24T06:42:06;9.98;;;1.55;;
19903;SDS011;10114;50.970;4.962;2022-11-24T06:44:32;9.43;;;1.50;;
19903;SDS011;10114;50.970;4.962;2022-11-24T06:46:58;8.65;;;2.17;;
19903;SDS011;10114;50.970;4.962;2022-11-24T06:49:24;5.53;;;1.27;;
19903;SDS011;10114;50.970;4.962;2022-11-24T06:51:50;7.90;;;1.38;;
19903;SDS011;10114;50.970;4.962;2022-11-24T06:54:18;10.85;;;1.80;;
19903;SDS011;10114;50.970;4.962;2022-11-24T06:56:47;9.20;;;1.60;;
19903;SDS011;10114;50.970;4.962;2022-11-24T06:59:17;12.55;;;1.85;;
19903;SDS011;10114;50.970;4.962;2022-11-24T07:01:44;7.40;;;1.63;;
19903;SDS011;10114;50.970;4.962;2022-11-24T07:04:10;12.05;;;2.03;;
19903;SDS011;10114;50.970;4.962;2022-11-24T07:06:37;9.73;;;1.65;;
19903;SDS011;10114;50.970;4.962;2022-11-24T07:09:05;9.18;;;2.22;;
19903;SDS011;10114;50.970;4.962;2022-11-24T07:11:31;11.90;;;2.33;;
19903;SDS011;10114;50.970;4.962;2022-11-24T07:13:57;12.57;;;1.80;;
19903;SDS011;10114;50.970;4.962;2022-11-24T07:16:24;13.25;;;2.90;;
19903;SDS011;10114;50.970;4.962;2022-11-24T07:18:51;14.77;;;3.63;;
19903;SDS011;10114;50.970;4.962;2022-11-24T07:21:17;11.50;;;3.42;;
19903;SDS011;10114;50.970;4.962;2022-11-24T07:23:46;17.50;;;3.53;;
19903;SDS011;10114;50.970;4.962;2022-11-24T07:26:13;16.17;;;2.28;;
19903;SDS011;10114;50.970;4.962;2022-11-24T07:28:39;10.93;;;2.20;;
19903;SDS011;10114;50.970;4.962;2022-11-24T07:31:06;16.25;;;2.35;;
19903;SDS011;10114;50.970;4.962;2022-11-24T07:33:32;10.80;;;2.70;;
19903;SDS011;10114;50.970;4.962;2022-11-24T07:35:58;9.77;;;2.35;;
19903;SDS011;10114;50.970;4.962;2022-11-24T07:38:24;9.98;;;3.10;;
19903;SDS011;10114;50.970;4.962;2022-11-24T07:40:50;9.75;;;2.53;;
19903;SDS011;10114;50.970;4.962;2022-11-24T07:43:16;12.10;;;2.00;;
19903;SDS011;10114;50.970;4.962;2022-11-24T07:45:42;11.57;;;2.05;;
19903;SDS011;10114;50.970;4.962;2022-11-24T07:48:08;15.45;;;2.38;;
19903;SDS011;10114;50.970;4.962;2022-11-24T07:50:35;13.18;;;1.95;;
19903;SDS011;10114;50.970;4.962;2022-11-24T07:53:02;14.68;;;1.85;;
19903;SDS011;10114;50.970;4.962;2022-11-24T07:55:28;9.38;;;2.00;;
19903;SDS011;10114;50.970;4.962;2022-11-24T07:57:57;18.48;;;1.77;;
19903;SDS011;10114;50.970;4.962;2022-11-24T08:00:23;9.40;;;1.83;;
19903;SDS011;10114;50.970;4.962;2022-11-24T08:02:51;10.15;;;1.92;;
19903;SDS011;10114;50.970;4.962;2022-11-24T08:05:17;10.13;;;1.55;;
19903;SDS011;10114;50.970;4.962;2022-11-24T08:07:43;11.10;;;1.42;;
19903;SDS011;10114;50.970;4.962;2022-11-24T08:10:09;14.55;;;1.75;;
19903;SDS011;10114;50.970;4.962;2022-11-24T08:12:35;9.40;;;2.00;;
19903;SDS011;10114;50.970;4.962;2022-11-24T08:15:01;8.90;;;1.40;;
19903;SDS011;10114;50.970;4.962;2022-11-24T08:17:27;7.55;;;1.95;;
19903;SDS011;10114;50.970;4.962;2022-11-24T08:19:54;10.88;;;1.55;;
19903;SDS011;10114;50.970;4.962;2022-11-24T08:22:20;11.23;;;1.85;;
19903;SDS011;10114;50.970;4.962;2022-11-24T08:24:46;10.75;;;3.00;;
19903;SDS011;10114;50.970;4.962;2022-11-24T08:27:13;14.95;;;2.15;;
19903;SDS011;10114;50.970;4.962;2022-11-24T08:29:40;12.07;;;1.83;;
19903;SDS011;10114;50.970;4.962;2022-11-24T08:32:06;12.20;;;2.35;;
19903;SDS011;10114;50.970;4.962;2022-11-24T08:34:32;10.50;;;1.55;;
19903;SDS011;10114;50.970;4.962;2022-11-24T08:36:58;7.70;;;1.63;;
19903;SDS011;10114;50.970;4.962;2022-11-24T08:39:24;6.28;;;1.27;;
19903;SDS011;10114;50.970;4.962;2022-11-24T08:41:50;11.40;;;1.70;;
19903;SDS011;10114;50.970;4.962;2022-11-24T08:44:16;13.45;;;1.73;;
19903;SDS011;10114;50.970;4.962;2022-11-24T08:46:43;9.35;;;2.33;;
19903;SDS011;10114;50.970;4.962;2022-11-24T08:49:09;13.43;;;2.10;;
19903;SDS011;10114;50.970;4.962;2022-11-24T08:51:37;9.45;;;2.10;;
19903;SDS011;10114;50.970;4.962;2022-11-24T08:54:03;20.05;;;2.10;;
19903;SDS011;10114;50.970;4.962;2022-11-24T08:56:30;10.75;;;1.98;;
19903;SDS011;10114;50.970;4.962;2022-11-24T08:58:56;8.20;;;1.90;;
19903;SDS011;10114;50.970;4.962;2022-11-24T09:01:23;12.02;;;1.70;;
19903;SDS011;10114;50.970;4.962;2022-11-24T09:03:49;13.25;;;2.15;;
19903;SDS011;10114;50.970;4.962;2022-11-24T09:06:16;14.02;;;2.10;;
19903;SDS011;10114;50.970;4.962;2022-11-24T09:08:42;13.23;;;2.25;;
19903;SDS011;10114;50.970;4.962;2022-11-24T09:11:09;9.85;;;2.60;;
19903;SDS011;10114;50.970;4.962;2022-11-24T09:13:36;10.60;;;2.05;;
19903;SDS011;10114;50.970;4.962;2022-11-24T09:16:02;7.65;;;1.88;;
19903;SDS011;10114;50.970;4.962;2022-11-24T09:18:29;13.93;;;2.40;;
19903;SDS011;10114;50.970;4.962;2022-11-24T09:21:04;15.20;;;2.38;;
19903;SDS011;10114;50.970;4.962;2022-11-24T09:23:30;9.35;;;2.03;;
19903;SDS011;10114;50.970;4.962;2022-11-24T09:26:01;9.75;;;2.20;;
19903;SDS011;10114;50.970;4.962;2022-11-24T09:28:27;7.93;;;1.95;;
19903;SDS011;10114;50.970;4.962;2022-11-24T09:30:53;11.13;;;2.40;;
19903;SDS011;10114;50.970;4.962;2022-11-24T09:33:19;13.15;;;1.77;;
19903;SDS011;10114;50.970;4.962;2022-11-24T09:35:48;11.80;;;2.58;;
19903;SDS011;10114;50.970;4.962;2022-11-24T09:38:14;16.38;;;2.75;;
19903;SDS011;10114;50.970;4.962;2022-11-24T09:40:40;7.82;;;1.73;;
19903;SDS011;10114;50.970;4.962;2022-11-24T09:43:18;11.20;;;1.85;;
19903;SDS011;10114;50.970;4.962;2022-11-24T09:48:26;12.10;;;2.00;;
19903;SDS011;10114;50.970;4.962;2022-11-24T09:50:54;14.07;;;2.58;;
19903;SDS011;10114;50.970;4.962;2022-11-24T09:53:39;11.95;;;2.30;;
19903;SDS011;10114;50.970;4.962;2022-11-24T09:56:21;9.82;;;1.77;;
19903;SDS011;10114;50.970;4.962;2022-11-24T09:58:50;9.20;;;1.75;;
19903;SDS011;10114;50.970;4.962;2022-11-24T10:01:17;13.50;;;2.67;;
19903;SDS011;10114;50.970;4.962;2022-11-24T10:03:44;10.73;;;2.13;;
19903;SDS011;10114;50.970;4.962;2022-11-24T10:06:18;10.52;;;1.90;;
19903;SDS011;10114;50.970;4.962;2022-11-24T10:14:16;12.20;;;3.08;;
19903;SDS011;10114;50.970;4.962;2022-11-24T10:19:23;16.58;;;2.42;;
19903;SDS011;10114;50.970;4.962;2022-11-24T10:26:55;13.25;;;2.10;;
19903;SDS011;10114;50.970;4.962;2022-11-24T10:29:25;10.43;;;2.13;;
19903;SDS011;10114;50.970;4.962;2022-11-24T10:31:53;14.50;;;2.10;;
19903;SDS011;10114;50.970;4.962;2022-11-24T10:34:22;8.63;;;1.48;;
19903;SDS011;10114;50.970;4.962;2022-11-24T10:39:20;9.77;;;1.75;;
19903;SDS011;10114;50.970;4.962;2022-11-24T10:44:33;12.90;;;1.80;;
19903;SDS011;10114;50.970;4.962;2022-11-24T10:46:59;11.05;;;2.63;;
19903;SDS011;10114;50.970;4.962;2022-11-24T10:49:26;12.60;;;1.60;;
19903;SDS011;10114;50.970;4.962;2022-11-24T10:54:23;12.85;;;1.75;;
19903;SDS011;10114;50.970;4.962;2022-11-24T10:56:50;11.02;;;2.17;;
19903;SDS011;10114;50.970;4.962;2022-11-24T11:01:49;17.83;;;2.45;;
19903;SDS011;10114;50.970;4.962;2022-11-24T11:04:25;13.93;;;2.28;;
19903;SDS011;10114;50.970;4.962;2022-11-24T11:07:05;12.48;;;2.05;;
19903;SDS011;10114;50.970;4.962;2022-11-24T11:09:31;13.48;;;2.10;;
19903;SDS011;10114;50.970;4.962;2022-11-24T11:11:57;15.13;;;3.55;;
19903;SDS011;10114;50.970;4.962;2022-11-24T11:14:33;14.23;;;1.85;;
19903;SDS011;10114;50.970;4.962;2022-11-24T11:16:59;12.38;;;1.98;;
19903;SDS011;10114;50.970;4.962;2022-11-24T11:19:34;10.55;;;1.90;;
19903;SDS011;10114;50.970;4.962;2022-11-24T11:24:26;10.13;;;1.58;;
19903;SDS011;10114;50.970;4.962;2022-11-24T11:27:01;15.15;;;2.05;;
19903;SDS011;10114;50.970;4.962;2022-11-24T11:29:27;10.27;;;2.17;;
19903;SDS011;10114;50.970;4.962;2022-11-24T11:32:01;13.05;;;2.20;;
19903;SDS011;10114;50.970;4.962;2022-11-24T11:34:30;12.95;;;1.85;;
19903;SDS011;10114;50.970;4.962;2022-11-24T11:36:58;10.98;;;1.80;;
19903;SDS011;10114;50.970;4.962;2022-11-24T11:39:28;10.77;;;2.15;;
19903;SDS011;10114;50.970;4.962;2022-11-24T11:44:28;20.33;;;2.17;;
19903;SDS011;10114;50.970;4.962;2022-11-24T11:46:55;16.02;;;2.72;;
19903;SDS011;10114;50.970;4.962;2022-11-24T11:49:22;13.40;;;1.90;;
19903;SDS011;10114;50.970;4.962;2022-11-24T11:51:56;9.40;;;2.10;;
19903;SDS011;10114;50.970;4.962;2022-11-24T11:57:16;16.20;;;2.55;;
19903;SDS011;10114;50.970;4.962;2022-11-24T12:09:36;8.77;;;1.80;;
19903;SDS011;10114;50.970;4.962;2022-11-24T12:15:11;12.07;;;2.05;;
19903;SDS011;10114;50.970;4.962;2022-11-24T12:22:45;9.98;;;2.15;;
19903;SDS011;10114;50.970;4.962;2022-11-24T12:25:19;15.02;;;2.40;;
19903;SDS011;10114;50.970;4.962;2022-11-24T12:30:29;8.93;;;1.63;;
19903;SDS011;10114;50.970;4.962;2022-11-24T12:35:47;21.30;;;5.40;;
19903;SDS011;10114;50.970;4.962;2022-11-24T12:41:13;15.15;;;2.45;;
19903;SDS011;10114;50.970;4.962;2022-11-24T12:43:52;10.63;;;2.10;;
19903;SDS011;10114;50.970;4.962;2022-11-24T12:46:22;17.02;;;2.58;;
19903;SDS011;10114;50.970;4.962;2022-11-24T12:51:34;12.55;;;2.58;;
19903;SDS011;10114;50.970;4.962;2022-11-24T12:54:01;15.60;;;3.47;;
19903;SDS011;10114;50.970;4.962;2022-11-24T12:56:30;14.35;;;3.65;;
19903;SDS011;10114;50.970;4.962;2022-11-24T13:01:32;11.88;;;2.20;;
19903;SDS011;10114;50.970;4.962;2022-11-24T13:09:10;12.15;;;2.15;;
19903;SDS011;10114;50.970;4.962;2022-11-24T13:11:38;11.98;;;2.08;;
19903;SDS011;10114;50.970;4.962;2022-11-24T13:14:06;15.18;;;2.22;;
19903;SDS011;10114;50.970;4.962;2022-11-24T13:16:46;10.80;;;2.15;;
19903;SDS011;10114;50.970;4.962;2022-11-24T13:19:13;18.30;;;2.67;;
19903;SDS011;10114;50.970;4.962;2022-11-24T13:29:50;16.38;;;2.35;;
19903;SDS011;10114;50.970;4.962;2022-11-24T13:39:50;22.52;;;2.63;;
19903;SDS011;10114;50.970;4.962;2022-11-24T13:42:17;10.63;;;2.35;;
19903;SDS011;10114;50.970;4.962;2022-11-24T13:44:53;11.82;;;3.22;;
19903;SDS011;10114;50.970;4.962;2022-11-24T13:47:33;14.00;;;2.10;;
19903;SDS011;10114;50.970;4.962;2022-11-24T13:50:00;13.57;;;2.47;;
19903;SDS011;10114;50.970;4.962;2022-11-24T13:57:41;12.48;;;2.42;;
19903;SDS011;10114;50.970;4.962;2022-11-24T14:02:47;11.35;;;1.77;;
19903;SDS011;10114;50.970;4.962;2022-11-24T14:05:14;14.15;;;1.80;;
19903;SDS011;10114;50.970;4.962;2022-11-24T14:07:41;11.50;;;2.10;;
19903;SDS011;10114;50.970;4.962;2022-11-24T14:10:42;19.02;;;2.95;;
19903;SDS011;10114;50.970;4.962;2022-11-24T14:18:24;13.95;;;2.17;;
19903;SDS011;10114;50.970;4.962;2022-11-24T14:20:51;16.60;;;2.00;;
19903;SDS011;10114;50.970;4.962;2022-11-24T14:23:17;12.50;;;2.10;;
19903;SDS011;10114;50.970;4.962;2022-11-24T14:25:47;16.08;;;2.10;;
19903;SDS011;10114;50.970;4.962;2022-11-24T14:28:26;17.55;;;2.35;;
19903;SDS011;10114;50.970;4.962;2022-11-24T14:31:16;13.55;;;2.53;;
19903;SDS011;10114;50.970;4.962;2022-11-24T14:33:44;16.15;;;2.00;;
19903;SDS011;10114;50.970;4.962;2022-11-24T14:36:13;19.70;;;2.10;;
19903;SDS011;10114;50.970;4.962;2022-11-24T14:38:39;17.13;;;2.80;;
19903;SDS011;10114;50.970;4.962;2022-11-24T14:41:19;7.55;;;1.85;;
19903;SDS011;10114;50.970;4.962;2022-11-24T14:46:36;13.65;;;2.67;;
19903;SDS011;10114;50.970;4.962;2022-11-24T14:49:02;13.18;;;2.05;;
19903;SDS011;10114;50.970;4.962;2022-11-24T14:51:33;9.77;;;2.42;;
19903;SDS011;10114;50.970;4.962;2022-11-24T14:54:06;10.00;;;1.88;;
19903;SDS011;10114;50.970;4.962;2022-11-24T14:56:38;16.75;;;3.05;;
19903;SDS011;10114;50.970;4.962;2022-11-24T14:59:21;12.95;;;2.33;;
19903;SDS011;10114;50.970;4.962;2022-11-24T15:01:47;10.25;;;2.40;;
19903;SDS011;10114;50.970;4.962;2022-11-24T15:06:40;18.02;;;2.40;;
19903;SDS011;10114;50.970;4.962;2022-11-24T15:09:17;16.30;;;2.50;;
19903;SDS011;10114;50.970;4.962;2022-11-24T15:11:44;15.18;;;2.60;;
19903;SDS011;10114;50.970;4.962;2022-11-24T15:14:23;20.00;;;2.65;;
19903;SDS011;10114;50.970;4.962;2022-11-24T15:16:54;18.45;;;2.50;;
19903;SDS011;10114;50.970;4.962;2022-11-24T15:19:20;10.98;;;2.30;;
19903;SDS011;10114;50.970;4.962;2022-11-24T15:21:50;12.18;;;2.40;;
19903;SDS011;10114;50.970;4.962;2022-11-24T15:24:17;13.20;;;2.13;;
19903;SDS011;10114;50.970;4.962;2022-11-24T15:26:44;17.27;;;2.10;;
19903;SDS011;10114;50.970;4.962;2022-11-24T15:29:11;12.02;;;2.00;;
19903;SDS011;10114;50.970;4.962;2022-11-24T15:31:37;15.15;;;2.42;;
19903;SDS011;10114;50.970;4.962;2022-11-24T15:34:04;19.23;;;3.22;;
19903;SDS011;10114;50.970;4.962;2022-11-24T15:36:30;15.82;;;3.67;;
19903;SDS011;10114;50.970;4.962;2022-11-24T15:38:56;16.60;;;2.85;;
19903;SDS011;10114;50.970;4.962;2022-11-24T15:41:29;13.90;;;2.83;;
19903;SDS011;10114;50.970;4.962;2022-11-24T15:43:56;19.95;;;3.92;;
19903;SDS011;10114;50.970;4.962;2022-11-24T15:46:28;13.38;;;2.60;;
19903;SDS011;10114;50.970;4.962;2022-11-24T15:49:01;17.00;;;2.97;;
19903;SDS011;10114;50.970;4.962;2022-11-24T15:51:27;15.45;;;2.35;;
19903;SDS011;10114;50.970;4.962;2022-11-24T15:53:54;20.80;;;3.20;;
19903;SDS011;10114;50.970;4.962;2022-11-24T15:56:24;15.68;;;3.45;;
19903;SDS011;10114;50.970;4.962;2022-11-24T15:58:51;13.75;;;3.20;;
19903;SDS011;10114;50.970;4.962;2022-11-24T16:01:18;15.93;;;3.08;;
19903;SDS011;10114;50.970;4.962;2022-11-24T16:03:44;12.55;;;2.63;;
19903;SDS011;10114;50.970;4.962;2022-11-24T16:06:14;15.43;;;3.13;;
19903;SDS011;10114;50.970;4.962;2022-11-24T16:08:41;16.70;;;3.40;;
19903;SDS011;10114;50.970;4.962;2022-11-24T16:11:07;15.93;;;2.40;;
19903;SDS011;10114;50.970;4.962;2022-11-24T16:13:33;15.40;;;2.88;;
19903;SDS011;10114;50.970;4.962;2022-11-24T16:15:59;13.07;;;2.35;;
19903;SDS011;10114;50.970;4.962;2022-11-24T16:18:25;16.23;;;2.83;;
19903;SDS011;10114;50.970;4.962;2022-11-24T16:20:51;13.00;;;2.33;;
19903;SDS011;10114;50.970;4.962;2022-11-24T16:23:17;22.00;;;2.45;;
19903;SDS011;10114;50.970;4.962;2022-11-24T16:25:43;14.55;;;2.60;;
19903;SDS011;10114;50.970;4.962;2022-11-24T16:28:09;14.40;;;3.15;;
19903;SDS011;10114;50.970;4.962;2022-11-24T16:30:35;11.60;;;2.70;;